sensor_id;sensor_type;location;lat;lon;timestamp;P1;durP1;ratioP1;P2;durP2;ratioP2
10957;SDS011;5531;42.570;23.676;2023-10-08T00:00:23;0.10;;;0.10;;
10957;SDS011;5531;42.570;23.676;2023-10-08T00:03:04;0.13;;;0.13;;
10957;SDS011;5531;42.570;23.676;2023-10-08T00:05:37;0.20;;;0.20;;
10957;SDS011;5531;42.570;23.676;2023-10-08T00:08:06;0.10;;;0.10;;
10957;SDS011;5531;42.570;23.676;2023-10-08T00:10:36;0.20;;;0.20;;
10957;SDS011;5531;42.570;23.676;2023-10-08T00:13:06;0.30;;;0.30;;
10957;SDS011;5531;42.570;23.676;2023-10-08T00:15:35;0.10;;;0.10;;
10957;SDS011;5531;42.570;23.676;2023-10-08T00:18:07;0.20;;;0.20;;
10957;SDS011;5531;42.570;23.676;2023-10-08T00:20:39;0.10;;;0.10;;
10957;SDS011;5531;42.570;23.676;2023-10-08T00:23:12;0.10;;;0.10;;
10957;SDS011;5531;42.570;23.676;2023-10-08T00:25:43;0.13;;;0.13;;
10957;SDS011;5531;42.570;23.676;2023-10-08T00:28:12;0.20;;;0.20;;
10957;SDS011;5531;42.570;23.676;2023-10-08T00:30:42;0.10;;;0.10;;
10957;SDS011;5531;42.570;23.676;2023-10-08T00:33:13;0.20;;;0.20;;
10957;SDS011;5531;42.570;23.676;2023-10-08T00:35:45;0.20;;;0.20;;
10957;SDS011;5531;42.570;23.676;2023-10-08T00:38:13;0.20;;;0.20;;
10957;SDS011;5531;42.570;23.676;2023-10-08T00:40:45;0.17;;;0.17;;
10957;SDS011;5531;42.570;23.676;2023-10-08T00:45:59;0.10;;;0.10;;
10957;SDS011;5531;42.570;23.676;2023-10-08T00:48:42;0.10;;;0.10;;
10957;SDS011;5531;42.570;23.676;2023-10-08T00:51:14;0.20;;;0.20;;
10957;SDS011;5531;42.570;23.676;2023-10-08T00:53:52;0.20;;;0.20;;
10957;SDS011;5531;42.570;23.676;2023-10-08T00:56:23;0.20;;;0.20;;
10957;SDS011;5531;42.570;23.676;2023-10-08T00:59:09;0.20;;;0.20;;
10957;SDS011;5531;42.570;23.676;2023-10-08T01:01:41;0.20;;;0.20;;
10957;SDS011;5531;42.570;23.676;2023-10-08T01:04:15;0.20;;;0.20;;
10957;SDS011;5531;42.570;23.676;2023-10-08T01:06:50;0.22;;;0.22;;
10957;SDS011;5531;42.570;23.676;2023-10-08T01:09:21;0.17;;;0.17;;
10957;SDS011;5531;42.570;23.676;2023-10-08T01:12:10;0.20;;;0.20;;
10957;SDS011;5531;42.570;23.676;2023-10-08T01:14:41;0.20;;;0.20;;
10957;SDS011;5531;42.570;23.676;2023-10-08T01:17:12;0.20;;;0.20;;
10957;SDS011;5531;42.570;23.676;2023-10-08T01:19:44;0.20;;;0.20;;
10957;SDS011;5531;42.570;23.676;2023-10-08T01:22:23;0.20;;;0.20;;
10957;SDS011;5531;42.570;23.676;2023-10-08T01:24:55;0.13;;;0.13;;
10957;SDS011;5531;42.570;23.676;2023-10-08T01:27:29;0.10;;;0.10;;
10957;SDS011;5531;42.570;23.676;2023-10-08T01:30:00;0.20;;;0.20;;
10957;SDS011;5531;42.570;23.676;2023-10-08T01:32:43;0.20;;;0.20;;
10957;SDS011;5531;42.570;23.676;2023-10-08T01:35:12;0.15;;;0.15;;
10957;SDS011;5531;42.570;23.676;2023-10-08T01:37:51;0.20;;;0.20;;
10957;SDS011;5531;42.570;23.676;2023-10-08T01:40:22;0.20;;;0.20;;
10957;SDS011;5531;42.570;23.676;2023-10-08T01:42:50;0.17;;;0.17;;
10957;SDS011;5531;42.570;23.676;2023-10-08T01:45:19;0.10;;;0.10;;
10957;SDS011;5531;42.570;23.676;2023-10-08T01:47:50;0.20;;;0.20;;
10957;SDS011;5531;42.570;23.676;2023-10-08T01:50:20;0.20;;;0.20;;
10957;SDS011;5531;42.570;23.676;2023-10-08T01:52:53;0.10;;;0.10;;
10957;SDS011;5531;42.570;23.676;2023-10-08T01:55:21;0.20;;;0.20;;
10957;SDS011;5531;42.570;23.676;2023-10-08T01:57:50;0.10;;;0.10;;
10957;SDS011;5531;42.570;23.676;2023-10-08T02:00:19;0.20;;;0.20;;
10957;SDS011;5531;42.570;23.676;2023-10-08T02:02:49;0.20;;;0.20;;
10957;SDS011;5531;42.570;23.676;2023-10-08T02:05:19;0.30;;;0.30;;
10957;SDS011;5531;42.570;23.676;2023-10-08T02:07:48;0.20;;;0.20;;
10957;SDS011;5531;42.570;23.676;2023-10-08T02:10:19;0.15;;;0.15;;
10957;SDS011;5531;42.570;23.676;2023-10-08T02:12:47;0.20;;;0.20;;
10957;SDS011;5531;42.570;23.676;2023-10-08T02:15:16;0.30;;;0.30;;
10957;SDS011;5531;42.570;23.676;2023-10-08T02:17:45;0.20;;;0.20;;
10957;SDS011;5531;42.570;23.676;2023-10-08T02:20:14;0.22;;;0.22;;
10957;SDS011;5531;42.570;23.676;2023-10-08T02:22:44;0.20;;;0.20;;
10957;SDS011;5531;42.570;23.676;2023-10-08T02:25:14;0.20;;;0.20;;
10957;SDS011;5531;42.570;23.676;2023-10-08T02:27:46;0.20;;;0.20;;
10957;SDS011;5531;42.570;23.676;2023-10-08T02:30:15;0.20;;;0.20;;
10957;SDS011;5531;42.570;23.676;2023-10-08T02:32:44;0.10;;;0.10;;
10957;SDS011;5531;42.570;23.676;2023-10-08T02:35:12;0.20;;;0.20;;
10957;SDS011;5531;42.570;23.676;2023-10-08T02:37:41;0.25;;;0.25;;
10957;SDS011;5531;42.570;23.676;2023-10-08T02:40:11;0.20;;;0.20;;
10957;SDS011;5531;42.570;23.676;2023-10-08T02:42:47;0.20;;;0.20;;
10957;SDS011;5531;42.570;23.676;2023-10-08T02:45:16;0.20;;;0.20;;
10957;SDS011;5531;42.570;23.676;2023-10-08T02:47:47;0.20;;;0.20;;
10957;SDS011;5531;42.570;23.676;2023-10-08T02:50:18;0.15;;;0.15;;
10957;SDS011;5531;42.570;23.676;2023-10-08T02:52:47;0.15;;;0.15;;
10957;SDS011;5531;42.570;23.676;2023-10-08T02:55:16;0.20;;;0.20;;
10957;SDS011;5531;42.570;23.676;2023-10-08T02:58:02;0.20;;;0.20;;
10957;SDS011;5531;42.570;23.676;2023-10-08T03:00:31;0.20;;;0.20;;
10957;SDS011;5531;42.570;23.676;2023-10-08T03:03:00;0.30;;;0.30;;
10957;SDS011;5531;42.570;23.676;2023-10-08T03:05:41;0.30;;;0.30;;
10957;SDS011;5531;42.570;23.676;2023-10-08T03:08:11;0.13;;;0.13;;
10957;SDS011;5531;42.570;23.676;2023-10-08T03:10:44;0.20;;;0.20;;
10957;SDS011;5531;42.570;23.676;2023-10-08T03:13:16;0.20;;;0.20;;
10957;SDS011;5531;42.570;23.676;2023-10-08T03:15:45;0.20;;;0.20;;
10957;SDS011;5531;42.570;23.676;2023-10-08T03:18:33;0.20;;;0.20;;
10957;SDS011;5531;42.570;23.676;2023-10-08T03:21:08;0.20;;;0.20;;
10957;SDS011;5531;42.570;23.676;2023-10-08T03:23:45;0.10;;;0.10;;
10957;SDS011;5531;42.570;23.676;2023-10-08T03:26:15;0.20;;;0.20;;
10957;SDS011;5531;42.570;23.676;2023-10-08T03:28:59;0.20;;;0.20;;
10957;SDS011;5531;42.570;23.676;2023-10-08T03:31:33;0.20;;;0.20;;
10957;SDS011;5531;42.570;23.676;2023-10-08T03:34:15;0.20;;;0.20;;
10957;SDS011;5531;42.570;23.676;2023-10-08T03:36:44;0.17;;;0.17;;
10957;SDS011;5531;42.570;23.676;2023-10-08T03:39:14;0.22;;;0.22;;
10957;SDS011;5531;42.570;23.676;2023-10-08T03:41:44;0.30;;;0.30;;
10957;SDS011;5531;42.570;23.676;2023-10-08T03:44:28;0.20;;;0.20;;
10957;SDS011;5531;42.570;23.676;2023-10-08T03:46:56;0.20;;;0.20;;
10957;SDS011;5531;42.570;23.676;2023-10-08T03:49:26;0.20;;;0.20;;
10957;SDS011;5531;42.570;23.676;2023-10-08T03:51:56;0.40;;;0.40;;
10957;SDS011;5531;42.570;23.676;2023-10-08T03:54:26;0.20;;;0.20;;
10957;SDS011;5531;42.570;23.676;2023-10-08T03:57:08;0.10;;;0.10;;
10957;SDS011;5531;42.570;23.676;2023-10-08T03:59:43;0.20;;;0.20;;
10957;SDS011;5531;42.570;23.676;2023-10-08T04:02:13;0.30;;;0.30;;
10957;SDS011;5531;42.570;23.676;2023-10-08T04:04:58;0.22;;;0.22;;
10957;SDS011;5531;42.570;23.676;2023-10-08T04:07:43;0.22;;;0.22;;
10957;SDS011;5531;42.570;23.676;2023-10-08T04:10:31;0.10;;;0.10;;
10957;SDS011;5531;42.570;23.676;2023-10-08T04:13:27;0.20;;;0.20;;
10957;SDS011;5531;42.570;23.676;2023-10-08T04:15:59;0.10;;;0.10;;
10957;SDS011;5531;42.570;23.676;2023-10-08T04:18:30;0.17;;;0.17;;
10957;SDS011;5531;42.570;23.676;2023-10-08T04:21:05;0.20;;;0.20;;
10957;SDS011;5531;42.570;23.676;2023-10-08T04:23:38;0.22;;;0.22;;
10957;SDS011;5531;42.570;23.676;2023-10-08T04:26:09;0.10;;;0.10;;
10957;SDS011;5531;42.570;23.676;2023-10-08T04:28:38;0.20;;;0.20;;
10957;SDS011;5531;42.570;23.676;2023-10-08T04:31:10;0.22;;;0.22;;
10957;SDS011;5531;42.570;23.676;2023-10-08T04:33:50;0.20;;;0.20;;
10957;SDS011;5531;42.570;23.676;2023-10-08T04:36:19;0.20;;;0.20;;
10957;SDS011;5531;42.570;23.676;2023-10-08T04:38:49;0.30;;;0.30;;
10957;SDS011;5531;42.570;23.676;2023-10-08T04:41:20;0.20;;;0.20;;
10957;SDS011;5531;42.570;23.676;2023-10-08T04:43:53;0.20;;;0.20;;
10957;SDS011;5531;42.570;23.676;2023-10-08T04:46:24;0.20;;;0.20;;
10957;SDS011;5531;42.570;23.676;2023-10-08T04:49:12;0.15;;;0.15;;
10957;SDS011;5531;42.570;23.676;2023-10-08T04:51:52;0.22;;;0.22;;
10957;SDS011;5531;42.570;23.676;2023-10-08T04:54:23;0.20;;;0.20;;
10957;SDS011;5531;42.570;23.676;2023-10-08T04:56:55;0.20;;;0.20;;
10957;SDS011;5531;42.570;23.676;2023-10-08T04:59:24;0.20;;;0.20;;
10957;SDS011;5531;42.570;23.676;2023-10-08T05:02:01;0.25;;;0.25;;
10957;SDS011;5531;42.570;23.676;2023-10-08T05:04:59;0.10;;;0.10;;
10957;SDS011;5531;42.570;23.676;2023-10-08T05:07:40;0.20;;;0.20;;
10957;SDS011;5531;42.570;23.676;2023-10-08T05:10:26;0.10;;;0.10;;
10957;SDS011;5531;42.570;23.676;2023-10-08T05:13:22;0.20;;;0.20;;
10957;SDS011;5531;42.570;23.676;2023-10-08T05:15:58;0.10;;;0.10;;
10957;SDS011;5531;42.570;23.676;2023-10-08T05:18:49;0.20;;;0.20;;
10957;SDS011;5531;42.570;23.676;2023-10-08T05:21:33;0.10;;;0.10;;
10957;SDS011;5531;42.570;23.676;2023-10-08T05:24:17;0.13;;;0.13;;
10957;SDS011;5531;42.570;23.676;2023-10-08T05:26:53;0.20;;;0.20;;
10957;SDS011;5531;42.570;23.676;2023-10-08T05:29:35;0.22;;;0.22;;
10957;SDS011;5531;42.570;23.676;2023-10-08T05:32:40;0.20;;;0.20;;
10957;SDS011;5531;42.570;23.676;2023-10-08T05:35:34;0.20;;;0.20;;
10957;SDS011;5531;42.570;23.676;2023-10-08T05:38:20;0.10;;;0.10;;
10957;SDS011;5531;42.570;23.676;2023-10-08T05:41:03;0.10;;;0.10;;
10957;SDS011;5531;42.570;23.676;2023-10-08T05:43:53;0.20;;;0.20;;
10957;SDS011;5531;42.570;23.676;2023-10-08T05:46:36;0.20;;;0.20;;
10957;SDS011;5531;42.570;23.676;2023-10-08T05:49:17;0.10;;;0.10;;
10957;SDS011;5531;42.570;23.676;2023-10-08T05:52:06;0.10;;;0.10;;
10957;SDS011;5531;42.570;23.676;2023-10-08T05:54:52;0.22;;;0.22;;
10957;SDS011;5531;42.570;23.676;2023-10-08T05:57:41;0.20;;;0.20;;
10957;SDS011;5531;42.570;23.676;2023-10-08T06:00:12;0.17;;;0.17;;
10957;SDS011;5531;42.570;23.676;2023-10-08T06:02:53;0.20;;;0.20;;
10957;SDS011;5531;42.570;23.676;2023-10-08T06:05:34;0.20;;;0.20;;
10957;SDS011;5531;42.570;23.676;2023-10-08T06:08:11;0.10;;;0.10;;
10957;SDS011;5531;42.570;23.676;2023-10-08T06:10:38;0.10;;;0.10;;
10957;SDS011;5531;42.570;23.676;2023-10-08T06:13:21;0.10;;;0.10;;
10957;SDS011;5531;42.570;23.676;2023-10-08T06:16:10;0.10;;;0.10;;
10957;SDS011;5531;42.570;23.676;2023-10-08T06:18:38;0.10;;;0.10;;
10957;SDS011;5531;42.570;23.676;2023-10-08T06:21:07;0.10;;;0.10;;
10957;SDS011;5531;42.570;23.676;2023-10-08T06:23:36;0.20;;;0.20;;
10957;SDS011;5531;42.570;23.676;2023-10-08T06:26:07;0.30;;;0.30;;
10957;SDS011;5531;42.570;23.676;2023-10-08T06:28:46;0.20;;;0.20;;
10957;SDS011;5531;42.570;23.676;2023-10-08T06:31:15;0.30;;;0.30;;
10957;SDS011;5531;42.570;23.676;2023-10-08T06:33:50;0.10;;;0.10;;
10957;SDS011;5531;42.570;23.676;2023-10-08T06:36:19;0.13;;;0.13;;
10957;SDS011;5531;42.570;23.676;2023-10-08T06:38:52;0.10;;;0.10;;
10957;SDS011;5531;42.570;23.676;2023-10-08T06:41:20;0.17;;;0.17;;
10957;SDS011;5531;42.570;23.676;2023-10-08T06:43:58;0.10;;;0.10;;
10957;SDS011;5531;42.570;23.676;2023-10-08T06:46:28;0.10;;;0.10;;
10957;SDS011;5531;42.570;23.676;2023-10-08T06:48:58;0.20;;;0.20;;
10957;SDS011;5531;42.570;23.676;2023-10-08T06:51:26;0.10;;;0.10;;
10957;SDS011;5531;42.570;23.676;2023-10-08T06:54:00;0.10;;;0.10;;
10957;SDS011;5531;42.570;23.676;2023-10-08T06:56:29;0.20;;;0.20;;
10957;SDS011;5531;42.570;23.676;2023-10-08T06:58:58;0.10;;;0.10;;
10957;SDS011;5531;42.570;23.676;2023-10-08T07:01:27;0.10;;;0.10;;
10957;SDS011;5531;42.570;23.676;2023-10-08T07:04:04;0.10;;;0.10;;
10957;SDS011;5531;42.570;23.676;2023-10-08T07:06:37;0.20;;;0.20;;
10957;SDS011;5531;42.570;23.676;2023-10-08T07:09:08;0.10;;;0.10;;
10957;SDS011;5531;42.570;23.676;2023-10-08T07:11:48;0.20;;;0.20;;
10957;SDS011;5531;42.570;23.676;2023-10-08T07:14:20;0.15;;;0.15;;
10957;SDS011;5531;42.570;23.676;2023-10-08T07:16:52;0.05;;;0.05;;
10957;SDS011;5531;42.570;23.676;2023-10-08T07:19:24;0.10;;;0.10;;
10957;SDS011;5531;42.570;23.676;2023-10-08T07:21:58;0.10;;;0.10;;
10957;SDS011;5531;42.570;23.676;2023-10-08T07:24:34;0.10;;;0.10;;
10957;SDS011;5531;42.570;23.676;2023-10-08T07:27:03;0.10;;;0.10;;
10957;SDS011;5531;42.570;23.676;2023-10-08T07:29:35;0.10;;;0.10;;
10957;SDS011;5531;42.570;23.676;2023-10-08T07:32:04;0.10;;;0.10;;
10957;SDS011;5531;42.570;23.676;2023-10-08T07:34:38;0.10;;;0.10;;
10957;SDS011;5531;42.570;23.676;2023-10-08T07:37:07;0.10;;;0.10;;
10957;SDS011;5531;42.570;23.676;2023-10-08T07:39:39;0.10;;;0.10;;
10957;SDS011;5531;42.570;23.676;2023-10-08T07:42:12;0.05;;;0.05;;
10957;SDS011;5531;42.570;23.676;2023-10-08T07:44:41;0.10;;;0.10;;
10957;SDS011;5531;42.570;23.676;2023-10-08T07:47:10;0.10;;;0.10;;
10957;SDS011;5531;42.570;23.676;2023-10-08T07:49:37;0.00;;;0.00;;
10957;SDS011;5531;42.570;23.676;2023-10-08T07:52:09;0.10;;;0.10;;
10957;SDS011;5531;42.570;23.676;2023-10-08T07:54:43;0.00;;;0.00;;
10957;SDS011;5531;42.570;23.676;2023-10-08T07:57:13;0.08;;;0.08;;
10957;SDS011;5531;42.570;23.676;2023-10-08T07:59:44;0.10;;;0.10;;
10957;SDS011;5531;42.570;23.676;2023-10-08T08:02:14;0.10;;;0.10;;
10957;SDS011;5531;42.570;23.676;2023-10-08T08:04:45;0.10;;;0.10;;
10957;SDS011;5531;42.570;23.676;2023-10-08T08:07:18;0.10;;;0.10;;
10957;SDS011;5531;42.570;23.676;2023-10-08T08:09:50;0.10;;;0.10;;
10957;SDS011;5531;42.570;23.676;2023-10-08T08:12:24;0.10;;;0.10;;
10957;SDS011;5531;42.570;23.676;2023-10-08T08:14:53;0.10;;;0.10;;
10957;SDS011;5531;42.570;23.676;2023-10-08T08:17:22;0.10;;;0.10;;
10957;SDS011;5531;42.570;23.676;2023-10-08T08:19:51;0.10;;;0.10;;
10957;SDS011;5531;42.570;23.676;2023-10-08T08:22:20;0.08;;;0.08;;
10957;SDS011;5531;42.570;23.676;2023-10-08T08:24:59;0.00;;;0.00;;
10957;SDS011;5531;42.570;23.676;2023-10-08T08:27:41;0.00;;;0.00;;
10957;SDS011;5531;42.570;23.676;2023-10-08T08:30:12;0.08;;;0.08;;
10957;SDS011;5531;42.570;23.676;2023-10-08T08:32:41;0.10;;;0.10;;
10957;SDS011;5531;42.570;23.676;2023-10-08T08:35:13;0.10;;;0.10;;
10957;SDS011;5531;42.570;23.676;2023-10-08T08:37:42;0.00;;;0.00;;
10957;SDS011;5531;42.570;23.676;2023-10-08T08:40:14;0.10;;;0.10;;
10957;SDS011;5531;42.570;23.676;2023-10-08T08:42:47;0.10;;;0.10;;
10957;SDS011;5531;42.570;23.676;2023-10-08T08:45:18;0.10;;;0.10;;
10957;SDS011;5531;42.570;23.676;2023-10-08T08:47:49;0.10;;;0.10;;
10957;SDS011;5531;42.570;23.676;2023-10-08T08:50:18;0.10;;;0.10;;
10957;SDS011;5531;42.570;23.676;2023-10-08T08:52:46;0.00;;;0.00;;
10957;SDS011;5531;42.570;23.676;2023-10-08T08:55:19;0.10;;;0.10;;
10957;SDS011;5531;42.570;23.676;2023-10-08T08:57:48;0.10;;;0.10;;
10957;SDS011;5531;42.570;23.676;2023-10-08T09:00:18;0.10;;;0.10;;
10957;SDS011;5531;42.570;23.676;2023-10-08T09:02:52;0.10;;;0.10;;
10957;SDS011;5531;42.570;23.676;2023-10-08T09:05:21;0.10;;;0.10;;
10957;SDS011;5531;42.570;23.676;2023-10-08T09:08:00;0.10;;;0.10;;
10957;SDS011;5531;42.570;23.676;2023-10-08T09:10:32;0.10;;;0.10;;
10957;SDS011;5531;42.570;23.676;2023-10-08T09:13:02;0.08;;;0.08;;
10957;SDS011;5531;42.570;23.676;2023-10-08T09:15:32;0.10;;;0.10;;
10957;SDS011;5531;42.570;23.676;2023-10-08T09:18:02;0.10;;;0.10;;
10957;SDS011;5531;42.570;23.676;2023-10-08T09:20:32;0.20;;;0.20;;
10957;SDS011;5531;42.570;23.676;2023-10-08T09:23:08;0.00;;;0.00;;
10957;SDS011;5531;42.570;23.676;2023-10-08T09:25:43;0.00;;;0.00;;
10957;SDS011;5531;42.570;23.676;2023-10-08T09:28:15;0.10;;;0.10;;
10957;SDS011;5531;42.570;23.676;2023-10-08T09:30:44;0.10;;;0.10;;
10957;SDS011;5531;42.570;23.676;2023-10-08T09:33:13;0.00;;;0.00;;
10957;SDS011;5531;42.570;23.676;2023-10-08T09:35:43;0.10;;;0.10;;
10957;SDS011;5531;42.570;23.676;2023-10-08T09:38:11;0.03;;;0.03;;
10957;SDS011;5531;42.570;23.676;2023-10-08T09:40:51;0.10;;;0.10;;
10957;SDS011;5531;42.570;23.676;2023-10-08T09:43:21;0.00;;;0.00;;
10957;SDS011;5531;42.570;23.676;2023-10-08T09:45:51;0.10;;;0.10;;
10957;SDS011;5531;42.570;23.676;2023-10-08T09:48:20;0.08;;;0.08;;
10957;SDS011;5531;42.570;23.676;2023-10-08T09:50:50;0.00;;;0.00;;
10957;SDS011;5531;42.570;23.676;2023-10-08T09:53:22;0.00;;;0.00;;
10957;SDS011;5531;42.570;23.676;2023-10-08T09:55:56;0.00;;;0.00;;
10957;SDS011;5531;42.570;23.676;2023-10-08T09:58:25;0.10;;;0.10;;
10957;SDS011;5531;42.570;23.676;2023-10-08T10:00:54;0.00;;;0.00;;
10957;SDS011;5531;42.570;23.676;2023-10-08T10:03:23;0.10;;;0.10;;
10957;SDS011;5531;42.570;23.676;2023-10-08T10:05:52;0.00;;;0.00;;
10957;SDS011;5531;42.570;23.676;2023-10-08T10:08:25;0.10;;;0.10;;
10957;SDS011;5531;42.570;23.676;2023-10-08T10:11:00;0.00;;;0.00;;
10957;SDS011;5531;42.570;23.676;2023-10-08T10:13:29;0.00;;;0.00;;
10957;SDS011;5531;42.570;23.676;2023-10-08T10:15:57;0.03;;;0.03;;
10957;SDS011;5531;42.570;23.676;2023-10-08T10:18:29;0.00;;;0.00;;
10957;SDS011;5531;42.570;23.676;2023-10-08T10:20:59;0.00;;;0.00;;
10957;SDS011;5531;42.570;23.676;2023-10-08T10:23:34;0.00;;;0.00;;
10957;SDS011;5531;42.570;23.676;2023-10-08T10:26:20;0.00;;;0.00;;
10957;SDS011;5531;42.570;23.676;2023-10-08T10:31:34;0.10;;;0.10;;
10957;SDS011;5531;42.570;23.676;2023-10-08T10:34:04;0.00;;;0.00;;
10957;SDS011;5531;42.570;23.676;2023-10-08T10:36:33;0.10;;;0.10;;
10957;SDS011;5531;42.570;23.676;2023-10-08T10:39:02;0.00;;;0.00;;
10957;SDS011;5531;42.570;23.676;2023-10-08T10:41:44;0.00;;;0.00;;
10957;SDS011;5531;42.570;23.676;2023-10-08T10:44:13;0.00;;;0.00;;
10957;SDS011;5531;42.570;23.676;2023-10-08T10:46:42;0.00;;;0.00;;
10957;SDS011;5531;42.570;23.676;2023-10-08T10:49:16;0.00;;;0.00;;
10957;SDS011;5531;42.570;23.676;2023-10-08T10:51:57;0.00;;;0.00;;
10957;SDS011;5531;42.570;23.676;2023-10-08T10:54:23;0.00;;;0.00;;
10957;SDS011;5531;42.570;23.676;2023-10-08T10:57:05;0.00;;;0.00;;
10957;SDS011;5531;42.570;23.676;2023-10-08T10:59:43;0.00;;;0.00;;
10957;SDS011;5531;42.570;23.676;2023-10-08T11:02:18;0.08;;;0.08;;
10957;SDS011;5531;42.570;23.676;2023-10-08T11:04:47;0.00;;;0.00;;
10957;SDS011;5531;42.570;23.676;2023-10-08T11:07:17;0.00;;;0.00;;
10957;SDS011;5531;42.570;23.676;2023-10-08T11:09:46;0.00;;;0.00;;
10957;SDS011;5531;42.570;23.676;2023-10-08T11:12:19;0.00;;;0.00;;
10957;SDS011;5531;42.570;23.676;2023-10-08T11:15:08;0.00;;;0.00;;
10957;SDS011;5531;42.570;23.676;2023-10-08T11:17:40;0.00;;;0.00;;
10957;SDS011;5531;42.570;23.676;2023-10-08T11:20:23;0.00;;;0.00;;
10957;SDS011;5531;42.570;23.676;2023-10-08T11:22:52;0.00;;;0.00;;
10957;SDS011;5531;42.570;23.676;2023-10-08T11:25:24;0.00;;;0.00;;
10957;SDS011;5531;42.570;23.676;2023-10-08T11:27:58;0.00;;;0.00;;
10957;SDS011;5531;42.570;23.676;2023-10-08T11:30:27;0.00;;;0.00;;
10957;SDS011;5531;42.570;23.676;2023-10-08T11:32:57;0.00;;;0.00;;
10957;SDS011;5531;42.570;23.676;2023-10-08T11:35:25;0.00;;;0.00;;
10957;SDS011;5531;42.570;23.676;2023-10-08T11:37:59;0.00;;;0.00;;
10957;SDS011;5531;42.570;23.676;2023-10-08T11:40:29;0.00;;;0.00;;
10957;SDS011;5531;42.570;23.676;2023-10-08T11:43:17;0.00;;;0.00;;
10957;SDS011;5531;42.570;23.676;2023-10-08T11:45:47;0.00;;;0.00;;
10957;SDS011;5531;42.570;23.676;2023-10-08T11:48:16;0.00;;;0.00;;
10957;SDS011;5531;42.570;23.676;2023-10-08T11:50:51;0.00;;;0.00;;
10957;SDS011;5531;42.570;23.676;2023-10-08T11:53:22;0.00;;;0.00;;
10957;SDS011;5531;42.570;23.676;2023-10-08T11:55:51;0.00;;;0.00;;
10957;SDS011;5531;42.570;23.676;2023-10-08T11:58:24;0.00;;;0.00;;
10957;SDS011;5531;42.570;23.676;2023-10-08T12:01:02;0.00;;;0.00;;
10957;SDS011;5531;42.570;23.676;2023-10-08T12:03:31;0.00;;;0.00;;
10957;SDS011;5531;42.570;23.676;2023-10-08T12:06:00;0.00;;;0.00;;
10957;SDS011;5531;42.570;23.676;2023-10-08T12:08:30;0.00;;;0.00;;
10957;SDS011;5531;42.570;23.676;2023-10-08T12:11:04;0.00;;;0.00;;
10957;SDS011;5531;42.570;23.676;2023-10-08T12:13:39;0.00;;;0.00;;
10957;SDS011;5531;42.570;23.676;2023-10-08T12:16:11;0.00;;;0.00;;
10957;SDS011;5531;42.570;23.676;2023-10-08T12:18:44;0.00;;;0.00;;
10957;SDS011;5531;42.570;23.676;2023-10-08T12:21:14;0.00;;;0.00;;
10957;SDS011;5531;42.570;23.676;2023-10-08T12:23:42;0.00;;;0.00;;
10957;SDS011;5531;42.570;23.676;2023-10-08T12:26:12;0.00;;;0.00;;
10957;SDS011;5531;42.570;23.676;2023-10-08T12:28:44;0.00;;;0.00;;
10957;SDS011;5531;42.570;23.676;2023-10-08T12:31:13;0.00;;;0.00;;
10957;SDS011;5531;42.570;23.676;2023-10-08T12:33:46;0.00;;;0.00;;
10957;SDS011;5531;42.570;23.676;2023-10-08T12:36:18;0.00;;;0.00;;
10957;SDS011;5531;42.570;23.676;2023-10-08T12:38:48;0.00;;;0.00;;
10957;SDS011;5531;42.570;23.676;2023-10-08T12:41:22;0.00;;;0.00;;
10957;SDS011;5531;42.570;23.676;2023-10-08T12:43:54;0.00;;;0.00;;
10957;SDS011;5531;42.570;23.676;2023-10-08T12:46:23;0.00;;;0.00;;
10957;SDS011;5531;42.570;23.676;2023-10-08T12:48:56;0.00;;;0.00;;
10957;SDS011;5531;42.570;23.676;2023-10-08T12:51:26;0.00;;;0.00;;
10957;SDS011;5531;42.570;23.676;2023-10-08T12:53:58;0.00;;;0.00;;
10957;SDS011;5531;42.570;23.676;2023-10-08T12:56:29;0.00;;;0.00;;
10957;SDS011;5531;42.570;23.676;2023-10-08T12:59:04;0.00;;;0.00;;
10957;SDS011;5531;42.570;23.676;2023-10-08T13:01:33;0.00;;;0.00;;
10957;SDS011;5531;42.570;23.676;2023-10-08T13:04:02;0.00;;;0.00;;
10957;SDS011;5531;42.570;23.676;2023-10-08T13:06:32;0.00;;;0.00;;
10957;SDS011;5531;42.570;23.676;2023-10-08T13:09:03;0.00;;;0.00;;
10957;SDS011;5531;42.570;23.676;2023-10-08T13:11:38;0.00;;;0.00;;
10957;SDS011;5531;42.570;23.676;2023-10-08T13:14:10;0.00;;;0.00;;
10957;SDS011;5531;42.570;23.676;2023-10-08T13:16:39;0.00;;;0.00;;
10957;SDS011;5531;42.570;23.676;2023-10-08T13:19:10;0.00;;;0.00;;
10957;SDS011;5531;42.570;23.676;2023-10-08T13:21:39;0.00;;;0.00;;
10957;SDS011;5531;42.570;23.676;2023-10-08T13:24:09;0.00;;;0.00;;
10957;SDS011;5531;42.570;23.676;2023-10-08T13:26:38;0.00;;;0.00;;
10957;SDS011;5531;42.570;23.676;2023-10-08T13:29:10;0.00;;;0.00;;
10957;SDS011;5531;42.570;23.676;2023-10-08T13:31:39;0.00;;;0.00;;
10957;SDS011;5531;42.570;23.676;2023-10-08T13:34:07;0.00;;;0.00;;
10957;SDS011;5531;42.570;23.676;2023-10-08T13:36:37;0.00;;;0.00;;
10957;SDS011;5531;42.570;23.676;2023-10-08T13:39:07;0.00;;;0.00;;
10957;SDS011;5531;42.570;23.676;2023-10-08T13:41:43;0.00;;;0.00;;
10957;SDS011;5531;42.570;23.676;2023-10-08T13:44:15;0.00;;;0.00;;
10957;SDS011;5531;42.570;23.676;2023-10-08T13:46:54;0.00;;;0.00;;
10957;SDS011;5531;42.570;23.676;2023-10-08T13:49:24;0.00;;;0.00;;
10957;SDS011;5531;42.570;23.676;2023-10-08T13:51:53;0.00;;;0.00;;
10957;SDS011;5531;42.570;23.676;2023-10-08T13:54:24;0.00;;;0.00;;
10957;SDS011;5531;42.570;23.676;2023-10-08T13:56:54;0.00;;;0.00;;
10957;SDS011;5531;42.570;23.676;2023-10-08T13:59:25;0.00;;;0.00;;
10957;SDS011;5531;42.570;23.676;2023-10-08T14:01:56;0.00;;;0.00;;
10957;SDS011;5531;42.570;23.676;2023-10-08T14:04:27;0.00;;;0.00;;
10957;SDS011;5531;42.570;23.676;2023-10-08T14:06:55;0.00;;;0.00;;
10957;SDS011;5531;42.570;23.676;2023-10-08T14:09:24;0.00;;;0.00;;
10957;SDS011;5531;42.570;23.676;2023-10-08T14:12:02;0.00;;;0.00;;
10957;SDS011;5531;42.570;23.676;2023-10-08T14:14:34;0.00;;;0.00;;
10957;SDS011;5531;42.570;23.676;2023-10-08T14:17:08;0.00;;;0.00;;
10957;SDS011;5531;42.570;23.676;2023-10-08T14:19:40;0.00;;;0.00;;
10957;SDS011;5531;42.570;23.676;2023-10-08T14:22:11;0.00;;;0.00;;
10957;SDS011;5531;42.570;23.676;2023-10-08T14:24:44;0.00;;;0.00;;
10957;SDS011;5531;42.570;23.676;2023-10-08T14:27:23;0.00;;;0.00;;
10957;SDS011;5531;42.570;23.676;2023-10-08T14:29:59;0.00;;;0.00;;
10957;SDS011;5531;42.570;23.676;2023-10-08T14:32:30;0.10;;;0.10;;
10957;SDS011;5531;42.570;23.676;2023-10-08T14:34:59;0.00;;;0.00;;
10957;SDS011;5531;42.570;23.676;2023-10-08T14:37:40;0.00;;;0.00;;
10957;SDS011;5531;42.570;23.676;2023-10-08T14:40:20;0.00;;;0.00;;
10957;SDS011;5531;42.570;23.676;2023-10-08T14:43:01;0.00;;;0.00;;
10957;SDS011;5531;42.570;23.676;2023-10-08T14:45:34;0.00;;;0.00;;
10957;SDS011;5531;42.570;23.676;2023-10-08T14:48:06;0.00;;;0.00;;
10957;SDS011;5531;42.570;23.676;2023-10-08T14:50:36;0.00;;;0.00;;
10957;SDS011;5531;42.570;23.676;2023-10-08T14:53:06;0.00;;;0.00;;
10957;SDS011;5531;42.570;23.676;2023-10-08T14:55:35;0.00;;;0.00;;
10957;SDS011;5531;42.570;23.676;2023-10-08T14:58:04;0.00;;;0.00;;
10957;SDS011;5531;42.570;23.676;2023-10-08T15:00:36;0.00;;;0.00;;
10957;SDS011;5531;42.570;23.676;2023-10-08T15:03:07;0.00;;;0.00;;
10957;SDS011;5531;42.570;23.676;2023-10-08T15:05:37;0.00;;;0.00;;
10957;SDS011;5531;42.570;23.676;2023-10-08T15:08:05;0.00;;;0.00;;
10957;SDS011;5531;42.570;23.676;2023-10-08T15:10:35;0.00;;;0.00;;
10957;SDS011;5531;42.570;23.676;2023-10-08T15:13:04;0.00;;;0.00;;
10957;SDS011;5531;42.570;23.676;2023-10-08T15:15:32;0.10;;;0.10;;
10957;SDS011;5531;42.570;23.676;2023-10-08T15:18:04;0.10;;;0.10;;
10957;SDS011;5531;42.570;23.676;2023-10-08T15:20:37;0.10;;;0.10;;
10957;SDS011;5531;42.570;23.676;2023-10-08T15:23:06;0.10;;;0.10;;
10957;SDS011;5531;42.570;23.676;2023-10-08T15:25:37;0.05;;;0.05;;
10957;SDS011;5531;42.570;23.676;2023-10-08T15:28:05;0.00;;;0.00;;